Terminal Aerodrome Forecast
Issued by NWS Flagstaff, AZ

Home | Current Version | Previous Version | Text Only | Print | Product List | Glossary On
Versions: 1 2 3 4 5 6 7 8 9 10 11 12 13 14 15 16 17 18 19
000
FTUS45 KFGZ 010500
TAFINW
TAF
KINW 010535Z 0106/0206 25015KT P6SM SCT100 BKN200
     FM011100 VRB05KT P6SM SCT120
     FM012100 26012KT P6SM SCT080 BKN120 PROB30 0201/0202 VRB20G39KT
      -TSRA BKN050CB=

USA.gov is the U.S. government's official web portal to all federal, state and local government web resources and services.